sensor_id;sensor_type;location;lat;lon;timestamp;pressure;altitude;pressure_sealevel;temperature;humidity
48390;BME280;34643;47.964;7.982;2023-01-10T00:00:03;96515.38;;;16.90;64.55
48390;BME280;34643;47.964;7.982;2023-01-10T00:05:05;96530.91;;;16.92;64.36
48390;BME280;34643;47.964;7.982;2023-01-10T00:10:05;96544.75;;;16.92;64.30
48390;BME280;34643;47.964;7.982;2023-01-10T00:15:06;96543.34;;;16.88;64.37
48390;BME280;34643;47.964;7.982;2023-01-10T00:20:06;96548.91;;;16.95;64.50
48390;BME280;34643;47.964;7.982;2023-01-10T00:25:07;96558.50;;;16.95;65.05
48390;BME280;34643;47.964;7.982;2023-01-10T00:30:07;96574.41;;;16.91;65.30
48390;BME280;34643;47.964;7.982;2023-01-10T00:35:13;96571.78;;;16.91;65.17
48390;BME280;34643;47.964;7.982;2023-01-10T00:40:14;96596.91;;;16.92;65.14
48390;BME280;34643;47.964;7.982;2023-01-10T00:45:14;96610.19;;;16.89;65.35
48390;BME280;34643;47.964;7.982;2023-01-10T00:50:15;96628.44;;;16.89;65.34
48390;BME280;34643;47.964;7.982;2023-01-10T00:55:16;96638.97;;;16.88;65.29
48390;BME280;34643;47.964;7.982;2023-01-10T01:00:16;96648.44;;;16.89;65.38
48390;BME280;34643;47.964;7.982;2023-01-10T01:05:17;96664.06;;;16.89;65.29
48390;BME280;34643;47.964;7.982;2023-01-10T01:10:18;96677.97;;;16.89;65.58
48390;BME280;34643;47.964;7.982;2023-01-10T01:15:28;96688.25;;;16.91;65.66
48390;BME280;34643;47.964;7.982;2023-01-10T01:20:29;96701.66;;;16.86;65.93
48390;BME280;34643;47.964;7.982;2023-01-10T01:25:29;96716.22;;;16.89;65.95
48390;BME280;34643;47.964;7.982;2023-01-10T01:30:30;96732.72;;;16.89;65.87
48390;BME280;34643;47.964;7.982;2023-01-10T01:35:30;96749.06;;;16.91;65.76
48390;BME280;34643;47.964;7.982;2023-01-10T01:40:32;96762.09;;;16.91;65.87
48390;BME280;34643;47.964;7.982;2023-01-10T01:45:36;96765.44;;;16.94;65.94
48390;BME280;34643;47.964;7.982;2023-01-10T01:55:47;96798.81;;;16.88;65.99
48390;BME280;34643;47.964;7.982;2023-01-10T02:00:47;96805.72;;;16.89;66.78
48390;BME280;34643;47.964;7.982;2023-01-10T02:05:48;96821.13;;;16.92;66.26
48390;BME280;34643;47.964;7.982;2023-01-10T02:15:55;96857.72;;;16.91;66.42
48390;BME280;34643;47.964;7.982;2023-01-10T02:21:08;96865.53;;;16.91;66.55
48390;BME280;34643;47.964;7.982;2023-01-10T02:46:30;96900.59;;;16.87;66.57
48390;BME280;34643;47.964;7.982;2023-01-10T02:51:31;96909.84;;;16.91;66.25
48390;BME280;34643;47.964;7.982;2023-01-10T03:02:12;96914.75;;;16.96;66.34
48390;BME280;34643;47.964;7.982;2023-01-10T03:12:20;96916.84;;;16.90;66.34
48390;BME280;34643;47.964;7.982;2023-01-10T03:17:22;96929.69;;;16.94;65.92
48390;BME280;34643;47.964;7.982;2023-01-10T03:22:24;96937.50;;;16.94;65.91
48390;BME280;34643;47.964;7.982;2023-01-10T03:27:31;96946.50;;;16.89;66.13
48390;BME280;34643;47.964;7.982;2023-01-10T03:32:34;96946.50;;;16.89;66.21
48390;BME280;34643;47.964;7.982;2023-01-10T03:37:35;96965.69;;;16.88;66.14
48390;BME280;34643;47.964;7.982;2023-01-10T03:48:09;96982.88;;;16.91;66.11
48390;BME280;34643;47.964;7.982;2023-01-10T03:53:10;96998.63;;;16.89;66.08
48390;BME280;34643;47.964;7.982;2023-01-10T03:58:12;97015.31;;;16.87;66.15
48390;BME280;34643;47.964;7.982;2023-01-10T04:03:12;97006.47;;;16.89;65.87
48390;BME280;34643;47.964;7.982;2023-01-10T04:08:12;97007.38;;;16.88;66.14
48390;BME280;34643;47.964;7.982;2023-01-10T04:13:12;97009.38;;;16.85;66.44
48390;BME280;34643;47.964;7.982;2023-01-10T04:18:13;97032.63;;;16.88;66.30
48390;BME280;34643;47.964;7.982;2023-01-10T04:23:14;97024.06;;;16.86;66.37
48390;BME280;34643;47.964;7.982;2023-01-10T04:28:15;97029.41;;;16.84;66.10
48390;BME280;34643;47.964;7.982;2023-01-10T04:33:15;97032.75;;;16.86;66.11
48390;BME280;34643;47.964;7.982;2023-01-10T04:38:15;97040.47;;;16.88;66.30
48390;BME280;34643;47.964;7.982;2023-01-10T04:43:16;97046.78;;;16.84;66.23
48390;BME280;34643;47.964;7.982;2023-01-10T04:48:16;97061.50;;;16.98;66.18
48390;BME280;34643;47.964;7.982;2023-01-10T04:53:17;97059.41;;;17.03;65.91
48390;BME280;34643;47.964;7.982;2023-01-10T04:58:17;97073.91;;;17.07;65.80
48390;BME280;34643;47.964;7.982;2023-01-10T05:03:17;97080.19;;;17.04;65.80
48390;BME280;34643;47.964;7.982;2023-01-10T05:08:19;97081.63;;;17.08;65.88
48390;BME280;34643;47.964;7.982;2023-01-10T05:13:19;97096.47;;;17.08;65.82
48390;BME280;34643;47.964;7.982;2023-01-10T05:18:19;97097.38;;;17.07;65.72
48390;BME280;34643;47.964;7.982;2023-01-10T05:23:20;97110.22;;;17.10;65.74
48390;BME280;34643;47.964;7.982;2023-01-10T05:28:20;97114.50;;;17.11;65.81
48390;BME280;34643;47.964;7.982;2023-01-10T05:33:20;97119.72;;;17.11;66.51
48390;BME280;34643;47.964;7.982;2023-01-10T05:38:20;97116.56;;;17.32;66.53
48390;BME280;34643;47.964;7.982;2023-01-10T05:43:21;97126.03;;;13.44;55.44
48390;BME280;34643;47.964;7.982;2023-01-10T05:48:21;97129.03;;;12.14;54.01
48390;BME280;34643;47.964;7.982;2023-01-10T05:53:21;97136.25;;;15.04;59.39
48390;BME280;34643;47.964;7.982;2023-01-10T05:58:22;97134.34;;;16.06;58.70
48390;BME280;34643;47.964;7.982;2023-01-10T06:03:23;97142.66;;;16.26;58.31
48390;BME280;34643;47.964;7.982;2023-01-10T06:08:25;97140.47;;;16.32;58.98
48390;BME280;34643;47.964;7.982;2023-01-10T06:13:25;97145.31;;;16.39;59.19
48390;BME280;34643;47.964;7.982;2023-01-10T06:18:26;97149.56;;;16.40;59.81
48390;BME280;34643;47.964;7.982;2023-01-10T06:23:26;97158.44;;;16.37;60.13
48390;BME280;34643;47.964;7.982;2023-01-10T06:28:27;97160.94;;;16.39;60.37
48390;BME280;34643;47.964;7.982;2023-01-10T06:33:28;97177.59;;;16.36;60.83
48390;BME280;34643;47.964;7.982;2023-01-10T06:38:28;97196.59;;;16.38;60.83
48390;BME280;34643;47.964;7.982;2023-01-10T06:43:28;97207.19;;;16.35;61.28
48390;BME280;34643;47.964;7.982;2023-01-10T06:48:28;97189.97;;;16.32;61.32
48390;BME280;34643;47.964;7.982;2023-01-10T06:53:29;97213.41;;;16.32;61.50
48390;BME280;34643;47.964;7.982;2023-01-10T06:58:29;97229.28;;;16.29;61.50
48390;BME280;34643;47.964;7.982;2023-01-10T07:03:29;97243.22;;;16.28;61.63
48390;BME280;34643;47.964;7.982;2023-01-10T07:08:30;97242.38;;;16.28;61.78
48390;BME280;34643;47.964;7.982;2023-01-10T07:13:30;97259.88;;;16.26;61.71
48390;BME280;34643;47.964;7.982;2023-01-10T07:18:30;97260.88;;;16.23;62.02
48390;BME280;34643;47.964;7.982;2023-01-10T07:23:31;97267.97;;;16.21;61.84
48390;BME280;34643;47.964;7.982;2023-01-10T07:28:31;97266.28;;;16.20;62.06
48390;BME280;34643;47.964;7.982;2023-01-10T07:33:33;97267.13;;;16.21;61.98
48390;BME280;34643;47.964;7.982;2023-01-10T07:38:33;97275.13;;;16.18;62.17
48390;BME280;34643;47.964;7.982;2023-01-10T07:43:34;97269.28;;;16.14;62.33
48390;BME280;34643;47.964;7.982;2023-01-10T07:48:35;97295.22;;;16.15;62.23
48390;BME280;34643;47.964;7.982;2023-01-10T07:53:35;97316.25;;;16.12;62.43
48390;BME280;34643;47.964;7.982;2023-01-10T07:58:37;97329.34;;;16.11;62.60
48390;BME280;34643;47.964;7.982;2023-01-10T08:03:37;97340.81;;;16.08;62.45
48390;BME280;34643;47.964;7.982;2023-01-10T08:08:37;97343.59;;;16.05;62.46
48390;BME280;34643;47.964;7.982;2023-01-10T08:13:38;97339.41;;;16.03;62.46
48390;BME280;34643;47.964;7.982;2023-01-10T08:18:38;97346.38;;;16.02;62.70
48390;BME280;34643;47.964;7.982;2023-01-10T08:23:41;97350.75;;;16.02;62.68
48390;BME280;34643;47.964;7.982;2023-01-10T08:28:41;97346.56;;;15.99;62.78
48390;BME280;34643;47.964;7.982;2023-01-10T08:33:42;97356.13;;;15.99;62.63
48390;BME280;34643;47.964;7.982;2023-01-10T08:38:42;97364.97;;;15.96;62.83
48390;BME280;34643;47.964;7.982;2023-01-10T08:43:42;97372.78;;;15.96;62.82
48390;BME280;34643;47.964;7.982;2023-01-10T08:48:42;97369.22;;;15.97;62.67
48390;BME280;34643;47.964;7.982;2023-01-10T08:53:43;97379.47;;;16.00;62.67
48390;BME280;34643;47.964;7.982;2023-01-10T08:58:43;97380.34;;;16.01;62.56
48390;BME280;34643;47.964;7.982;2023-01-10T09:03:43;97376.69;;;16.03;62.60
48390;BME280;34643;47.964;7.982;2023-01-10T09:08:44;97388.81;;;16.04;62.61
48390;BME280;34643;47.964;7.982;2023-01-10T09:13:47;97399.97;;;16.06;62.45
48390;BME280;34643;47.964;7.982;2023-01-10T09:18:47;97410.09;;;16.11;62.46
48390;BME280;34643;47.964;7.982;2023-01-10T09:23:48;97406.41;;;16.15;62.37
48390;BME280;34643;47.964;7.982;2023-01-10T09:28:48;97417.34;;;16.20;62.43
48390;BME280;34643;47.964;7.982;2023-01-10T09:33:48;97417.16;;;16.23;62.48
48390;BME280;34643;47.964;7.982;2023-01-10T09:38:48;97414.66;;;16.22;62.49
48390;BME280;34643;47.964;7.982;2023-01-10T09:59:15;97440.44;;;16.26;62.60
48390;BME280;34643;47.964;7.982;2023-01-10T10:04:24;97442.00;;;16.29;62.39
48390;BME280;34643;47.964;7.982;2023-01-10T10:09:30;97440.53;;;16.25;62.69
48390;BME280;34643;47.964;7.982;2023-01-10T10:14:40;97430.28;;;16.22;62.94
48390;BME280;34643;47.964;7.982;2023-01-10T10:35:31;97447.59;;;16.23;62.72
48390;BME280;34643;47.964;7.982;2023-01-10T10:40:32;97448.44;;;16.23;62.74
48390;BME280;34643;47.964;7.982;2023-01-10T10:45:36;97451.13;;;16.22;62.90
48390;BME280;34643;47.964;7.982;2023-01-10T10:50:46;97438.19;;;16.20;62.83
48390;BME280;34643;47.964;7.982;2023-01-10T10:55:49;97436.44;;;16.21;62.96
48390;BME280;34643;47.964;7.982;2023-01-10T11:00:49;97435.69;;;16.19;62.96
48390;BME280;34643;47.964;7.982;2023-01-10T11:05:50;97439.97;;;16.20;62.86
48390;BME280;34643;47.964;7.982;2023-01-10T11:10:52;97442.94;;;16.13;62.95
48390;BME280;34643;47.964;7.982;2023-01-10T11:15:53;97435.03;;;16.15;62.95
48390;BME280;34643;47.964;7.982;2023-01-10T11:20:57;97448.22;;;16.12;63.13
48390;BME280;34643;47.964;7.982;2023-01-10T11:25:59;97434.38;;;16.11;63.04
48390;BME280;34643;47.964;7.982;2023-01-10T11:30:59;97437.91;;;16.10;63.09
48390;BME280;34643;47.964;7.982;2023-01-10T11:36:04;97434.56;;;16.08;62.95
48390;BME280;34643;47.964;7.982;2023-01-10T11:46:19;97411.47;;;16.16;62.72
48390;BME280;34643;47.964;7.982;2023-01-10T11:51:27;97410.75;;;16.29;62.45
48390;BME280;34643;47.964;7.982;2023-01-10T11:56:29;97416.25;;;16.39;62.32
48390;BME280;34643;47.964;7.982;2023-01-10T12:06:31;97400.16;;;16.46;62.53
48390;BME280;34643;47.964;7.982;2023-01-10T12:11:32;97398.19;;;16.50;62.46
48390;BME280;34643;47.964;7.982;2023-01-10T12:16:34;97391.97;;;16.52;62.61
48390;BME280;34643;47.964;7.982;2023-01-10T12:26:35;97381.34;;;16.56;62.81
48390;BME280;34643;47.964;7.982;2023-01-10T12:31:36;97364.53;;;16.61;62.84
48390;BME280;34643;47.964;7.982;2023-01-10T12:36:43;97359.19;;;16.63;62.82
48390;BME280;34643;47.964;7.982;2023-01-10T12:41:56;97359.09;;;16.64;62.87
48390;BME280;34643;47.964;7.982;2023-01-10T12:52:36;97346.84;;;16.66;62.88
48390;BME280;34643;47.964;7.982;2023-01-10T12:57:45;97344.09;;;16.68;62.75
48390;BME280;34643;47.964;7.982;2023-01-10T13:02:47;97334.53;;;16.68;62.97
48390;BME280;34643;47.964;7.982;2023-01-10T13:07:50;97338.88;;;16.68;62.84
48390;BME280;34643;47.964;7.982;2023-01-10T13:12:59;97331.63;;;16.73;62.93
48390;BME280;34643;47.964;7.982;2023-01-10T13:23:01;97317.22;;;16.67;63.12
48390;BME280;34643;47.964;7.982;2023-01-10T13:28:30;97313.47;;;16.71;62.80
48390;BME280;34643;47.964;7.982;2023-01-10T13:33:38;97302.13;;;16.72;62.90
48390;BME280;34643;47.964;7.982;2023-01-10T13:38:57;97298.47;;;16.75;62.68
48390;BME280;34643;47.964;7.982;2023-01-10T13:44:04;97291.50;;;16.76;62.91
48390;BME280;34643;47.964;7.982;2023-01-10T14:04:52;97279.47;;;16.73;62.97
48390;BME280;34643;47.964;7.982;2023-01-10T14:09:57;97266.34;;;16.75;62.96
48390;BME280;34643;47.964;7.982;2023-01-10T14:15:06;97284.59;;;16.75;62.99
48390;BME280;34643;47.964;7.982;2023-01-10T14:25:14;97288.69;;;16.79;62.82
48390;BME280;34643;47.964;7.982;2023-01-10T14:30:18;97286.19;;;16.77;62.77
48390;BME280;34643;47.964;7.982;2023-01-10T14:35:20;97287.84;;;16.78;62.84
48390;BME280;34643;47.964;7.982;2023-01-10T14:45:30;97275.97;;;16.74;63.06
48390;BME280;34643;47.964;7.982;2023-01-10T14:50:32;97268.03;;;16.76;62.78
48390;BME280;34643;47.964;7.982;2023-01-10T14:55:32;97265.44;;;16.76;62.88
48390;BME280;34643;47.964;7.982;2023-01-10T15:00:33;97249.88;;;16.74;62.98
48390;BME280;34643;47.964;7.982;2023-01-10T15:05:36;97244.69;;;16.74;63.01
48390;BME280;34643;47.964;7.982;2023-01-10T15:10:39;97235.81;;;16.77;62.79
48390;BME280;34643;47.964;7.982;2023-01-10T15:15:40;97230.28;;;16.68;62.91
48390;BME280;34643;47.964;7.982;2023-01-10T15:20:42;97216.81;;;16.75;62.70
48390;BME280;34643;47.964;7.982;2023-01-10T15:25:43;97215.03;;;16.75;62.79
48390;BME280;34643;47.964;7.982;2023-01-10T15:30:43;97215.28;;;16.72;62.91
48390;BME280;34643;47.964;7.982;2023-01-10T15:35:44;97208.19;;;16.74;63.04
48390;BME280;34643;47.964;7.982;2023-01-10T15:40:44;97203.16;;;16.71;63.10
48390;BME280;34643;47.964;7.982;2023-01-10T15:45:45;97200.56;;;16.71;63.06
48390;BME280;34643;47.964;7.982;2023-01-10T15:50:56;97206.91;;;16.67;62.91
48390;BME280;34643;47.964;7.982;2023-01-10T15:56:07;97210.44;;;16.66;63.00
48390;BME280;34643;47.964;7.982;2023-01-10T16:01:11;97202.72;;;16.64;62.90
48390;BME280;34643;47.964;7.982;2023-01-10T16:06:19;97195.00;;;16.63;63.19
48390;BME280;34643;47.964;7.982;2023-01-10T16:17:12;97203.94;;;16.59;62.79
48390;BME280;34643;47.964;7.982;2023-01-10T16:22:15;97206.75;;;16.56;62.94
48390;BME280;34643;47.964;7.982;2023-01-10T16:27:17;97205.19;;;16.53;63.13
48390;BME280;34643;47.964;7.982;2023-01-10T16:32:17;97195.91;;;16.49;63.07
48390;BME280;34643;47.964;7.982;2023-01-10T16:37:17;97193.50;;;16.46;62.99
48390;BME280;34643;47.964;7.982;2023-01-10T16:42:18;97193.38;;;16.47;62.92
48390;BME280;34643;47.964;7.982;2023-01-10T16:47:37;97190.97;;;16.44;63.08
48390;BME280;34643;47.964;7.982;2023-01-10T16:52:37;97188.47;;;16.43;63.12
48390;BME280;34643;47.964;7.982;2023-01-10T16:57:37;97182.44;;;16.42;62.83
48390;BME280;34643;47.964;7.982;2023-01-10T17:02:38;97178.53;;;16.35;62.98
48390;BME280;34643;47.964;7.982;2023-01-10T17:07:38;97184.47;;;16.37;63.08
48390;BME280;34643;47.964;7.982;2023-01-10T17:12:38;97178.63;;;16.33;63.11
48390;BME280;34643;47.964;7.982;2023-01-10T17:17:41;97179.69;;;16.31;63.14
48390;BME280;34643;47.964;7.982;2023-01-10T17:22:44;97172.78;;;16.30;63.19
48390;BME280;34643;47.964;7.982;2023-01-10T17:27:44;97163.50;;;16.26;63.01
48390;BME280;34643;47.964;7.982;2023-01-10T17:32:45;97160.16;;;16.24;63.25
48390;BME280;34643;47.964;7.982;2023-01-10T17:37:47;97168.16;;;16.21;62.98
48390;BME280;34643;47.964;7.982;2023-01-10T17:42:47;97155.25;;;16.19;63.10
48390;BME280;34643;47.964;7.982;2023-01-10T17:47:48;97158.97;;;16.15;63.17
48390;BME280;34643;47.964;7.982;2023-01-10T17:52:50;97159.63;;;16.19;63.09
48390;BME280;34643;47.964;7.982;2023-01-10T17:57:51;97143.78;;;16.22;62.85
48390;BME280;34643;47.964;7.982;2023-01-10T18:02:51;97143.22;;;16.31;62.76
48390;BME280;34643;47.964;7.982;2023-01-10T18:07:51;97135.72;;;16.39;62.42
48390;BME280;34643;47.964;7.982;2023-01-10T18:12:51;97143.34;;;16.42;62.68
48390;BME280;34643;47.964;7.982;2023-01-10T18:17:52;97145.75;;;16.45;62.49
48390;BME280;34643;47.964;7.982;2023-01-10T18:22:52;97151.59;;;16.49;62.59
48390;BME280;34643;47.964;7.982;2023-01-10T18:28:11;97139.75;;;16.58;62.39
48390;BME280;34643;47.964;7.982;2023-01-10T18:33:11;97132.56;;;16.61;63.32
48390;BME280;34643;47.964;7.982;2023-01-10T18:38:11;97137.06;;;16.72;63.58
48390;BME280;34643;47.964;7.982;2023-01-10T18:43:12;97147.50;;;16.72;63.75
48390;BME280;34643;47.964;7.982;2023-01-10T18:48:15;97156.00;;;16.88;64.41
48390;BME280;34643;47.964;7.982;2023-01-10T18:53:17;97138.81;;;16.99;65.08
48390;BME280;34643;47.964;7.982;2023-01-10T18:58:18;97139.00;;;16.96;65.87
48390;BME280;34643;47.964;7.982;2023-01-10T19:03:18;97137.94;;;16.85;66.17
48390;BME280;34643;47.964;7.982;2023-01-10T19:08:18;97126.28;;;16.91;66.24
48390;BME280;34643;47.964;7.982;2023-01-10T19:13:19;97120.13;;;16.92;66.29
48390;BME280;34643;47.964;7.982;2023-01-10T19:18:19;97107.91;;;16.92;66.46
48390;BME280;34643;47.964;7.982;2023-01-10T19:23:19;97118.25;;;16.94;66.52
48390;BME280;34643;47.964;7.982;2023-01-10T19:28:20;97108.34;;;16.99;66.74
48390;BME280;34643;47.964;7.982;2023-01-10T19:33:20;97093.44;;;17.01;66.96
48390;BME280;34643;47.964;7.982;2023-01-10T19:38:20;97080.38;;;17.01;67.04
48390;BME280;34643;47.964;7.982;2023-01-10T19:43:20;97075.28;;;17.00;66.93
48390;BME280;34643;47.964;7.982;2023-01-10T19:48:23;97071.41;;;16.92;67.02
48390;BME280;34643;47.964;7.982;2023-01-10T19:53:24;97065.28;;;16.94;66.73
48390;BME280;34643;47.964;7.982;2023-01-10T19:58:26;97064.53;;;16.91;66.63
48390;BME280;34643;47.964;7.982;2023-01-10T20:03:26;97057.44;;;16.94;66.63
48390;BME280;34643;47.964;7.982;2023-01-10T20:08:26;97062.66;;;16.94;66.68
48390;BME280;34643;47.964;7.982;2023-01-10T20:13:26;97052.34;;;16.92;66.77
48390;BME280;34643;47.964;7.982;2023-01-10T20:18:27;97051.41;;;16.93;66.92
48390;BME280;34643;47.964;7.982;2023-01-10T20:23:29;97055.88;;;16.91;66.93
48390;BME280;34643;47.964;7.982;2023-01-10T20:28:29;97035.34;;;16.86;66.97
48390;BME280;34643;47.964;7.982;2023-01-10T20:33:30;97043.88;;;16.88;67.06
48390;BME280;34643;47.964;7.982;2023-01-10T20:38:31;97042.84;;;16.91;66.96
48390;BME280;34643;47.964;7.982;2023-01-10T20:43:32;97045.44;;;16.91;66.90
48390;BME280;34643;47.964;7.982;2023-01-10T20:48:32;97051.19;;;16.83;67.10
48390;BME280;34643;47.964;7.982;2023-01-10T20:53:33;97049.31;;;16.85;66.77
48390;BME280;34643;47.964;7.982;2023-01-10T20:58:33;97036.56;;;16.81;66.71
48390;BME280;34643;47.964;7.982;2023-01-10T21:03:41;97024.25;;;16.83;66.78
48390;BME280;34643;47.964;7.982;2023-01-10T21:08:42;97036.66;;;16.79;66.63
48390;BME280;34643;47.964;7.982;2023-01-10T21:13:42;97036.66;;;16.79;66.59
48390;BME280;34643;47.964;7.982;2023-01-10T21:18:42;97032.19;;;16.81;66.53
48390;BME280;34643;47.964;7.982;2023-01-10T21:23:43;97042.59;;;16.81;66.37
48390;BME280;34643;47.964;7.982;2023-01-10T21:28:44;97044.50;;;16.79;66.39
48390;BME280;34643;47.964;7.982;2023-01-10T21:33:48;97040.19;;;16.78;66.21
48390;BME280;34643;47.964;7.982;2023-01-10T21:38:48;97036.97;;;16.75;66.64
48390;BME280;34643;47.964;7.982;2023-01-10T21:43:48;97036.88;;;16.76;66.50
48390;BME280;34643;47.964;7.982;2023-01-10T21:48:49;97036.16;;;16.74;66.80
48390;BME280;34643;47.964;7.982;2023-01-10T21:53:49;97036.78;;;16.78;66.47
48390;BME280;34643;47.964;7.982;2023-01-10T21:58:49;97028.53;;;16.71;67.00
48390;BME280;34643;47.964;7.982;2023-01-10T22:03:49;97014.66;;;16.70;66.76
48390;BME280;34643;47.964;7.982;2023-01-10T22:08:50;97026.97;;;16.68;66.92
48390;BME280;34643;47.964;7.982;2023-01-10T22:13:51;97016.31;;;16.71;66.70
48390;BME280;34643;47.964;7.982;2023-01-10T22:18:53;97013.84;;;16.70;66.74
48390;BME280;34643;47.964;7.982;2023-01-10T22:23:54;97006.31;;;16.65;66.76
48390;BME280;34643;47.964;7.982;2023-01-10T22:28:54;97008.94;;;16.65;66.68
48390;BME280;34643;47.964;7.982;2023-01-10T22:33:54;97003.00;;;16.63;66.69
48390;BME280;34643;47.964;7.982;2023-01-10T22:38:54;97000.28;;;16.65;66.50
48390;BME280;34643;47.964;7.982;2023-01-10T22:43:55;97003.00;;;16.63;66.69
48390;BME280;34643;47.964;7.982;2023-01-10T22:48:56;97003.00;;;16.63;66.60
48390;BME280;34643;47.964;7.982;2023-01-10T22:53:56;96991.50;;;16.66;66.58
48390;BME280;34643;47.964;7.982;2023-01-10T22:58:58;96994.22;;;16.64;66.36
48390;BME280;34643;47.964;7.982;2023-01-10T23:03:58;96994.31;;;16.63;66.69
48390;BME280;34643;47.964;7.982;2023-01-10T23:08:58;96997.78;;;16.63;66.40
48390;BME280;34643;47.964;7.982;2023-01-10T23:13:59;96986.81;;;16.58;66.43
48390;BME280;34643;47.964;7.982;2023-01-10T23:18:59;96986.81;;;16.58;66.50
48390;BME280;34643;47.964;7.982;2023-01-10T23:23:59;96973.69;;;16.60;66.51
48390;BME280;34643;47.964;7.982;2023-01-10T23:29:00;96971.28;;;16.57;66.46
48390;BME280;34643;47.964;7.982;2023-01-10T23:34:00;96963.56;;;16.55;66.46
48390;BME280;34643;47.964;7.982;2023-01-10T23:39:00;96970.47;;;16.56;66.25
48390;BME280;34643;47.964;7.982;2023-01-10T23:44:00;96974.94;;;16.54;66.28
48390;BME280;34643;47.964;7.982;2023-01-10T23:49:01;96962.75;;;16.54;66.28
48390;BME280;34643;47.964;7.982;2023-01-10T23:54:01;96955.56;;;16.58;66.33
48390;BME280;34643;47.964;7.982;2023-01-10T23:59:02;96960.16;;;16.54;66.15
